KDLN/DLN METAR and TAF weather

Enter ICAO airport designator
Station Type Date Time Source
KDLN METAR 2019/12/14 10:53 UTC NOAA

KDLN 141053Z AUTO 19009KT 10SM CLR M08/M10 A2976 RMK AO2 SLP117 T10781100


Station Type Date Time Source
KDLN Decoded METAR 2019/12/14 10:53 UTC NOAA

DILLON AIRPORT, MT, United States (KDLN) 45-15N 112-33W 1591M
Dec 14, 2019 - 05:53 AM EST / 2019.12.14 1053 UTC
Wind: from the S (190 degrees) at 10 MPH (9 KT):0
Visibility: 10 mile(s):0
Sky conditions: clear
Temperature: 18.0 F (-7.8 C)
Windchill: 6 F (-14 C):1
Dew Point: 14.0 F (-10.0 C)
Relative Humidity: 84%
Pressure (altimeter): 29.76 in. Hg (1007 hPa)
ob: KDLN 141053Z AUTO 19009KT 10SM CLR M08/M10 A2976 RMK AO2 SLP117 T10781100
cycle: 11

Station Type Date Time Source
KDLN TAF UTC NOAA

Error!

Example: see airport list